Time;durP1;ratioP1;P1;durP2;ratioP2;P2;SDS_P1;SDS_P2;PMS_P1;PMS_P2;Temp;Humidity;BMP_temperature;BMP_pressure;BME280_temperature;BME280_humidity;BME280_pressure;Samples;Min_cycle;Max_cycle;Signal;HPM_P1;HPM_P2
2022/09/06 00:03:30;;;;;;;6.93;2.13;;;;;;;13.43;61.29;101473.16;3518433;82;98853;-89
2022/09/06 00:08:30;;;;;;;5.30;2.00;;;;;;;13.36;61.89;101462.77;3491036;82;99575;-89
2022/09/06 00:13:32;;;;;;;6.07;2.07;;;;;;;13.30;61.96;101461.48;3527373;82;98881;-88
2022/09/06 00:18:33;;;;;;;5.37;2.23;;;;;;;13.24;62.01;101471.27;3540578;82;98955;-89
2022/09/06 00:23:34;;;;;;;8.07;2.20;;;;;;;13.17;62.29;101464.24;3510187;82;99021;-88
2022/09/06 00:28:35;;;;;;;6.57;2.17;;;;;;;13.16;62.42;101457.70;3527368;82;98975;-89
2022/09/06 00:33:36;;;;;;;6.77;2.47;;;;;;;13.12;62.61;101457.64;3541939;82;99203;-89
2022/09/06 00:38:38;;;;;;;5.37;2.37;;;;;;;13.08;62.82;101455.99;3517888;82;98983;-89
2022/09/06 00:43:39;;;;;;;6.20;2.85;;;;;;;12.98;63.13;101462.91;3498204;83;99022;-88
2022/09/06 00:48:42;;;;;;;5.78;2.40;;;;;;;12.92;63.40;101451.14;3511179;82;98935;-88
2022/09/06 00:53:43;;;;;;;5.05;2.05;;;;;;;12.88;63.78;101450.27;3513380;82;99156;-88
2022/09/06 00:58:46;;;;;;;5.53;2.03;;;;;;;12.82;63.79;101442.84;3513161;81;99025;-88
2022/09/06 01:03:48;;;;;;;5.37;1.82;;;;;;;12.75;63.92;101442.73;3505706;81;99264;-89
2022/09/06 01:09:11;;;;;;;5.37;2.20;;;;;;;12.70;64.04;101454.08;3516724;82;99091;-88
2022/09/06 01:14:39;;;;;;;5.85;2.50;;;;;;;12.66;64.12;101453.80;3504272;81;99145;-88
2022/09/06 01:20:20;;;;;;;7.33;2.22;;;;;;;12.61;64.26;101442.48;3517403;82;99167;-89
2022/09/06 01:25:39;;;;;;;4.67;1.90;;;;;;;12.55;64.42;101433.47;3505372;82;99210;-88
2022/09/06 01:30:49;;;;;;;3.58;1.72;;;;;;;12.54;64.19;101435.42;3530986;81;99293;-90
2022/09/06 01:35:57;;;;;;;5.25;2.22;;;;;;;12.51;64.36;101429.27;3533068;82;99143;-90
2022/09/06 01:40:58;;;;;;;6.30;2.70;;;;;;;12.47;64.40;101431.16;3516148;82;98972;-90
2022/09/06 01:46:27;;;;;;;7.10;2.00;;;;;;;12.40;64.63;101424.69;3527812;82;99047;-90
2022/09/06 01:52:07;;;;;;;4.87;1.97;;;;;;;12.36;64.69;101428.77;3524291;83;99134;-88
2022/09/06 01:57:39;;;;;;;6.58;3.10;;;;;;;12.31;65.21;101426.90;3529162;82;99149;-88
2022/09/06 02:03:27;;;;;;;4.37;1.87;;;;;;;12.31;64.63;101422.77;3531729;81;99257;-89
2022/09/06 02:08:42;;;;;;;4.50;2.00;;;;;;;12.28;65.13;101426.23;3519591;82;99145;-89
2022/09/06 02:13:54;;;;;;;4.22;2.25;;;;;;;12.21;65.24;101417.82;3520728;82;99199;-89
2022/09/06 02:19:31;;;;;;;6.65;2.50;;;;;;;12.13;65.40;101418.82;3512875;83;99097;-89
2022/09/06 02:24:36;;;;;;;5.85;2.10;;;;;;;12.09;65.54;101414.62;3526516;82;99038;-88
2022/09/06 02:29:37;;;;;;;6.08;2.33;;;;;;;11.99;66.34;101420.70;3525568;82;99127;-89
2022/09/06 02:34:39;;;;;;;5.03;2.10;;;;;;;11.92;66.54;101413.67;3507467;83;99235;-89
2022/09/06 02:39:40;;;;;;;7.90;2.08;;;;;;;11.90;66.57;101407.73;3507544;81;99080;-89
2022/09/06 02:44:41;;;;;;;6.53;2.40;;;;;;;11.83;66.45;101414.45;3515428;82;99317;-89
2022/09/06 02:49:42;;;;;;;5.97;2.50;;;;;;;11.82;66.42;101413.45;3507373;81;99120;-90
2022/09/06 02:54:43;;;;;;;4.42;1.90;;;;;;;11.81;66.58;101411.83;3498672;81;99187;-89
2022/09/06 02:59:45;;;;;;;6.47;2.60;;;;;;;11.78;66.70;101405.67;3519156;81;99260;-90
2022/09/06 03:04:46;;;;;;;5.10;2.37;;;;;;;11.72;67.29;101399.63;3528296;80;99136;-90
2022/09/06 03:09:47;;;;;;;7.35;2.20;;;;;;;11.69;66.93;101402.31;3534779;80;99224;-90
2022/09/06 03:14:48;;;;;;;4.43;2.03;;;;;;;11.69;67.18;101398.17;3546078;80;99112;-90
2022/09/06 03:19:49;;;;;;;5.78;2.37;;;;;;;11.66;67.81;101398.31;3547460;81;99316;-90
2022/09/06 03:24:50;;;;;;;5.97;2.23;;;;;;;11.60;67.42;101400.33;3532313;81;99193;-90
2022/09/06 03:29:51;;;;;;;4.60;2.25;;;;;;;11.57;67.76;101388.63;3542812;80;99102;-90
2022/09/06 03:34:52;;;;;;;5.50;2.35;;;;;;;11.51;67.91;101388.69;3548548;81;99295;-90
2022/09/06 03:39:53;;;;;;;7.97;2.83;;;;;;;11.50;68.31;101384.34;3546005;80;99156;-90
2022/09/06 03:44:54;;;;;;;5.50;2.27;;;;;;;11.44;68.24;101386.56;3525611;80;99128;-89
2022/09/06 03:49:55;;;;;;;5.80;2.70;;;;;;;11.40;67.98;101384.30;3533515;81;99174;-89
2022/09/06 03:54:56;;;;;;;5.97;2.50;;;;;;;11.40;68.19;101380.77;3543615;81;99136;-90
2022/09/06 03:59:57;;;;;;;5.87;2.62;;;;;;;11.34;68.41;101370.58;3539821;80;99040;-90
2022/09/06 04:04:58;;;;;;;6.15;2.58;;;;;;;11.28;68.78;101374.77;3528036;81;99160;-90
2022/09/06 04:09:59;;;;;;;6.83;2.83;;;;;;;11.26;68.57;101383.98;3537139;81;99357;-90
2022/09/06 04:15:00;;;;;;;5.90;2.83;;;;;;;11.25;68.56;101390.66;3536062;81;99044;-90
2022/09/06 04:20:02;;;;;;;8.10;2.80;;;;;;;11.27;68.50;101388.91;3519818;81;99322;-90
2022/09/06 04:25:05;;;;;;;5.73;2.67;;;;;;;11.26;68.60;101381.23;3522107;81;99242;-90
2022/09/06 04:30:07;;;;;;;5.93;2.27;;;;;;;11.18;68.73;101387.72;3517818;81;99067;-90
2022/09/06 04:35:09;;;;;;;5.93;2.40;;;;;;;11.12;69.18;101396.64;3539873;81;99128;-90
2022/09/06 04:40:10;;;;;;;6.60;2.40;;;;;;;11.06;69.20;101387.83;3519676;82;99509;-89
2022/09/06 04:45:11;;;;;;;8.63;2.70;;;;;;;11.05;69.41;101381.29;3547248;81;99411;-89
2022/09/06 04:50:12;;;;;;;6.67;2.80;;;;;;;10.99;70.09;101387.66;3518706;81;99072;-90
2022/09/06 04:55:13;;;;;;;7.50;2.58;;;;;;;10.92;70.29;101381.17;3533191;81;99284;-89
2022/09/06 05:00:15;;;;;;;9.60;3.37;;;;;;;10.89;70.55;101376.37;3535044;81;99146;-89
2022/09/06 05:05:16;;;;;;;6.97;2.80;;;;;;;10.91;71.28;101385.09;3529008;81;99135;-90
2022/09/06 05:10:18;;;;;;;5.78;2.35;;;;;;;10.94;70.79;101378.86;3530861;82;99295;-90
2022/09/06 05:15:20;;;;;;;7.50;2.70;;;;;;;10.95;70.84;101378.50;3536111;81;99224;-89
2022/09/06 05:20:21;;;;;;;7.83;3.00;;;;;;;11.01;70.86;101387.31;3524236;81;99155;-88
2022/09/06 05:25:22;;;;;;;7.37;2.83;;;;;;;11.06;70.67;101386.45;3532600;81;99094;-89
2022/09/06 05:30:23;;;;;;;7.08;2.42;;;;;;;11.13;70.56;101381.70;3530790;81;99082;-87
2022/09/06 05:35:24;;;;;;;8.03;3.02;;;;;;;11.20;70.52;101388.75;3529493;81;99120;-87
2022/09/06 05:40:26;;;;;;;7.40;2.53;;;;;;;11.23;70.66;101391.58;3523061;81;99289;-88
2022/09/06 05:45:27;;;;;;;7.37;2.60;;;;;;;11.29;70.37;101386.61;3528504;81;99222;-88
2022/09/06 05:50:28;;;;;;;8.55;2.98;;;;;;;11.36;70.50;101393.09;3527643;81;99316;-87
2022/09/06 05:55:29;;;;;;;6.80;2.90;;;;;;;11.43;70.27;101378.65;3533106;81;99205;-87
2022/09/06 06:00:30;;;;;;;7.77;2.63;;;;;;;11.53;70.53;101381.66;3522799;81;99122;-88
2022/09/06 06:05:31;;;;;;;67.63;13.07;;;;;;;11.68;70.71;101377.28;3567118;80;99201;-87
2022/09/06 06:10:32;;;;;;;10.03;2.80;;;;;;;11.86;70.83;101375.69;3576535;80;99574;-87
2022/09/06 06:15:33;;;;;;;15.60;3.40;;;;;;;12.02;70.72;101375.85;3588732;80;99396;-88
2022/09/06 06:20:34;;;;;;;8.25;2.90;;;;;;;12.16;70.58;101375.34;3570696;80;99400;-83
2022/09/06 06:25:35;;;;;;;82.40;14.73;;;;;;;12.28;70.21;101375.98;3555636;82;99320;-87
2022/09/06 06:30:36;;;;;;;26.63;5.13;;;;;;;12.42;70.08;101369.33;3566069;80;105164;-85
2022/09/06 06:35:42;;;;;;;8.83;3.07;;;;;;;12.57;69.83;101371.76;3558460;81;99417;-85
2022/09/06 06:40:46;;;;;;;6.25;2.40;;;;;;;12.68;69.72;101365.27;3560026;81;98966;-86
2022/09/06 06:45:50;;;;;;;9.13;2.60;;;;;;;12.84;69.52;101364.56;3563968;81;99027;-87
2022/09/06 06:50:51;;;;;;;9.68;3.02;;;;;;;12.99;69.04;101353.99;3573471;81;99257;-85
2022/09/06 06:55:52;;;;;;;28.47;5.45;;;;;;;13.18;68.67;101353.88;3573110;80;98945;-86
2022/09/06 07:00:54;;;;;;;15.88;3.67;;;;;;;13.36;68.36;101359.68;3578028;80;99271;-86
2022/09/06 07:05:55;;;;;;;8.18;2.40;;;;;;;13.55;67.99;101352.06;3569196;80;99442;-85
2022/09/06 07:10:56;;;;;;;6.90;2.30;;;;;;;13.73;67.84;101339.25;3575466;80;99244;-84
2022/09/06 07:16:19;;;;;;;6.77;2.40;;;;;;;13.89;67.67;101362.59;3571133;80;99154;-85
2022/09/06 07:21:25;;;;;;;7.50;2.15;;;;;;;14.02;67.42;101354.23;3567772;80;99024;-81
2022/09/06 07:26:29;;;;;;;8.85;2.50;;;;;;;14.26;66.75;101359.28;3564343;80;99064;-85
2022/09/06 07:31:31;;;;;;;9.20;2.40;;;;;;;14.43;66.54;101358.09;3575998;81;99088;-85
2022/09/06 07:36:32;;;;;;;11.68;2.50;;;;;;;14.65;66.31;101361.27;3571164;80;99043;-84
2022/09/06 07:41:33;;;;;;;7.17;2.00;;;;;;;14.86;66.12;101373.13;3565768;81;99302;-83
2022/09/06 07:46:34;;;;;;;7.33;2.80;;;;;;;15.06;65.44;101380.85;3572867;80;108720;-83
2022/09/06 07:51:35;;;;;;;7.40;2.20;;;;;;;15.22;65.03;101375.83;3580172;80;99267;-84
2022/09/06 07:56:36;;;;;;;48.10;7.43;;;;;;;15.45;64.42;101370.86;3579033;80;99200;-85
2022/09/06 08:01:39;;;;;;;5.93;2.00;;;;;;;15.69;63.56;101363.86;3558262;80;107819;-84
2022/09/06 08:06:47;;;;;;;8.60;1.80;;;;;;;15.91;63.18;101351.67;3556315;81;99365;-84
2022/09/06 08:11:49;;;;;;;5.95;1.80;;;;;;;16.16;62.33;101349.76;3560558;80;99158;-83
2022/09/06 08:16:50;;;;;;;5.87;1.90;;;;;;;16.43;62.42;101351.86;3556208;80;99145;-85
2022/09/06 08:21:54;;;;;;;7.92;2.10;;;;;;;16.66;62.30;101344.52;3557294;80;99034;-85
2022/09/06 08:26:55;;;;;;;4.47;1.67;;;;;;;16.93;61.99;101340.97;3543649;81;99169;-84
2022/09/06 08:31:57;;;;;;;3.47;1.45;;;;;;;17.26;60.71;101336.37;3556562;81;99097;-84
2022/09/06 08:36:57;;;;;;;3.87;1.30;;;;;;;17.67;59.80;101333.33;3542207;81;99134;-83
2022/09/06 08:42:04;;;;;;;6.95;2.20;;;;;;;18.20;57.87;101328.28;3552750;80;99131;-83
2022/09/06 08:47:10;;;;;;;6.80;1.70;;;;;;;18.79;57.22;101329.09;3559157;80;99011;-84
2022/09/06 08:52:47;;;;;;;4.67;2.00;;;;;;;19.48;57.06;101315.71;3555860;80;99047;-84
2022/09/06 08:58:12;;;;;;;3.10;1.65;;;;;;;20.40;56.71;101325.92;3551310;80;99140;-85
2022/09/06 09:03:20;;;;;;;6.43;1.67;;;;;;;21.39;55.15;101313.26;3558196;80;99111;-84
2022/09/06 09:09:04;;;;;;;74.45;10.58;;;;;;;22.34;53.17;101310.05;3527217;82;99072;-83
2022/09/06 09:14:19;;;;;;;11.53;2.25;;;;;;;23.17;50.87;101321.87;3520041;82;99303;-85
2022/09/06 09:19:21;;;;;;;5.15;1.50;;;;;;;23.79;49.18;101303.08;3522985;81;99399;-82
2022/09/06 09:24:23;;;;;;;8.95;1.50;;;;;;;24.61;46.71;101307.81;3518393;82;99338;-85
2022/09/06 09:29:24;;;;;;;7.45;1.72;;;;;;;25.03;44.98;101304.39;3530476;81;99001;-84
2022/09/06 09:34:38;;;;;;;5.58;1.40;;;;;;;25.43;42.80;101297.55;3520165;81;99245;-84
2022/09/06 09:39:40;;;;;;;4.17;1.57;;;;;;;25.72;42.18;101292.47;3531076;81;99016;-83
2022/09/06 09:44:44;;;;;;;10.38;1.60;;;;;;;26.55;41.12;101284.17;3502815;82;99057;-84
2022/09/06 09:49:45;;;;;;;2.30;1.00;;;;;;;26.90;39.85;101282.69;3522885;81;99195;-82
2022/09/06 09:54:46;;;;;;;2.92;0.90;;;;;;;27.35;38.70;101267.84;3523252;82;99096;-85
2022/09/06 09:59:56;;;;;;;4.83;1.20;;;;;;;27.80;37.90;101267.80;3524409;82;99088;-84
2022/09/06 10:05:14;;;;;;;3.00;1.20;;;;;;;28.06;36.70;101269.00;3541909;81;99009;-84
2022/09/06 10:10:31;;;;;;;5.42;1.50;;;;;;;28.56;36.10;101264.69;3553594;81;98940;-84
2022/09/06 10:15:37;;;;;;;10.25;1.55;;;;;;;29.15;35.25;101267.95;3552729;82;99018;-83
2022/09/06 10:21:04;;;;;;;6.03;1.90;;;;;;;29.48;33.72;101266.42;3561299;81;99452;-84
2022/09/06 10:26:40;;;;;;;5.83;1.20;;;;;;;29.79;32.77;101261.88;3546017;82;99089;-84
2022/09/06 10:32:01;;;;;;;2.20;1.10;;;;;;;30.09;32.38;101259.19;3545042;81;98959;-84
2022/09/06 10:37:47;;;;;;;3.72;1.20;;;;;;;30.22;31.12;101241.21;3540029;81;98947;-86
2022/09/06 10:42:52;;;;;;;3.58;1.42;;;;;;;30.10;31.11;101229.54;3560285;80;99047;-85
2022/09/06 10:48:21;;;;;;;5.42;1.45;;;;;;;30.21;30.96;101241.08;3536555;81;98944;-86
2022/09/06 10:53:34;;;;;;;3.75;1.10;;;;;;;30.12;30.56;101230.44;3548379;81;99141;-85
2022/09/06 10:59:15;;;;;;;5.30;1.80;;;;;;;29.98;30.50;101225.55;3558848;82;98925;-85
2022/09/06 11:04:21;;;;;;;4.30;1.00;;;;;;;29.98;30.03;101221.30;3543908;81;98954;-84
2022/09/06 11:09:37;;;;;;;4.22;1.20;;;;;;;29.91;29.97;101215.38;3548760;81;99000;-84
2022/09/06 11:14:40;;;;;;;3.93;1.33;;;;;;;30.02;29.66;101208.45;3545657;82;102104;-83
2022/09/06 11:19:52;;;;;;;4.03;1.10;;;;;;;30.14;29.51;101197.44;3558184;81;99151;-83
2022/09/06 11:25:30;;;;;;;4.53;1.42;;;;;;;29.81;29.47;101189.02;3563473;81;98816;-82
2022/09/06 11:30:31;;;;;;;3.37;1.10;;;;;;;29.97;29.30;101202.05;3538237;81;98909;-84
2022/09/06 11:35:33;;;;;;;3.50;1.30;;;;;;;29.91;28.43;101197.58;3550492;81;99210;-84
2022/09/06 11:40:40;;;;;;;4.93;1.60;;;;;;;29.64;28.84;101195.81;3537331;80;108189;-84
2022/09/06 11:45:48;;;;;;;4.35;1.00;;;;;;;29.13;29.50;101181.19;3553475;81;99095;-84
2022/09/06 11:51:05;;;;;;;3.47;1.30;;;;;;;29.24;29.35;101179.19;3535468;81;98772;-84
2022/09/06 11:56:11;;;;;;;3.47;1.25;;;;;;;28.93;28.54;101169.67;3565947;81;98830;-83
2022/09/06 12:01:20;;;;;;;5.08;1.37;;;;;;;28.53;28.98;101163.70;3557610;82;98929;-83
2022/09/06 12:06:26;;;;;;;4.12;1.22;;;;;;;28.05;28.44;101163.48;3551642;81;99127;-83
2022/09/06 12:11:43;;;;;;;6.12;1.45;;;;;;;27.97;29.77;101151.57;3555661;81;98869;-83
2022/09/06 12:17:03;;;;;;;4.00;1.45;;;;;;;27.81;29.21;101151.34;3570454;81;98853;-83
2022/09/06 12:22:31;;;;;;;14.85;2.90;;;;;;;27.36;29.58;101148.60;3572905;81;98832;-84
2022/09/06 12:27:38;;;;;;;10.93;1.98;;;;;;;27.31;30.35;101151.30;3557120;81;99074;-83
2022/09/06 12:32:46;;;;;;;4.33;1.10;;;;;;;27.01;30.52;101138.11;3546778;81;98950;-83
2022/09/06 12:37:57;;;;;;;5.42;1.10;;;;;;;27.06;30.22;101140.30;3570232;81;98959;-83
2022/09/06 12:42:58;;;;;;;12.90;1.42;;;;;;;26.75;30.70;101133.41;3568579;81;98990;-81
2022/09/06 12:48:10;;;;;;;2.50;1.07;;;;;;;26.60;31.35;101123.22;3568819;80;99247;-84
2022/09/06 12:53:23;;;;;;;3.47;1.10;;;;;;;26.53;31.64;101121.45;3564055;80;98965;-84
2022/09/06 12:58:28;;;;;;;4.67;1.52;;;;;;;26.26;31.60;101119.23;3574856;80;98933;-84
2022/09/06 13:03:38;;;;;;;6.35;1.10;;;;;;;26.24;31.67;101116.88;3590720;80;98567;-82
2022/09/06 13:08:47;;;;;;;5.00;1.15;;;;;;;25.95;31.36;101117.91;3533907;80;99190;-83
2022/09/06 13:13:51;;;;;;;2.77;1.00;;;;;;;25.86;30.99;101104.35;3586975;80;98874;-84
2022/09/06 13:18:53;;;;;;;1.67;0.90;;;;;;;25.47;31.50;101097.47;3586777;80;99013;-83
2022/09/06 13:23:54;;;;;;;3.08;1.15;;;;;;;25.49;31.83;101092.77;3568179;80;99055;-84
2022/09/06 13:28:55;;;;;;;4.17;1.10;;;;;;;25.27;32.27;101092.02;3558613;80;98936;-83
2022/09/06 13:33:58;;;;;;;3.62;1.52;;;;;;;25.11;32.69;101083.79;3582481;80;99054;-83
2022/09/06 13:39:02;;;;;;;5.40;1.35;;;;;;;24.87;32.69;101086.28;3578884;80;99026;-83
2022/09/06 13:44:17;;;;;;;3.02;1.35;;;;;;;24.72;32.94;101081.61;3574071;80;99271;-84
2022/09/06 13:49:17;;;;;;;5.28;1.10;;;;;;;24.30;33.10;101081.08;3570372;80;98898;-84
2022/09/06 13:54:19;;;;;;;6.95;1.27;;;;;;;24.34;33.74;101073.91;3573837;80;98994;-84
2022/09/06 13:59:20;;;;;;;5.08;1.22;;;;;;;24.35;34.01;101076.92;3595623;80;98823;-83
2022/09/06 14:04:21;;;;;;;5.15;1.30;;;;;;;24.34;33.90;101069.09;3589697;80;99136;-82
2022/09/06 14:09:22;;;;;;;2.80;1.42;;;;;;;24.11;33.61;101070.11;3587204;80;99111;-84
2022/09/06 14:14:23;;;;;;;4.33;1.52;;;;;;;24.08;34.31;101071.03;3562359;80;99210;-84
2022/09/06 14:19:25;;;;;;;3.98;1.55;;;;;;;24.15;34.88;101072.95;3568425;80;98869;-83
2022/09/06 14:24:26;;;;;;;4.65;1.25;;;;;;;23.96;34.44;101061.37;3575340;81;98873;-83
2022/09/06 14:29:27;;;;;;;3.83;1.50;;;;;;;23.90;34.59;101060.37;3575275;81;98903;-83
2022/09/06 14:34:28;;;;;;;4.17;1.40;;;;;;;23.86;35.13;101056.08;3564691;81;98959;-83
2022/09/06 14:39:29;;;;;;;4.83;1.37;;;;;;;23.93;34.92;101051.02;3574822;80;98916;-84
2022/09/06 14:44:30;;;;;;;2.83;1.20;;;;;;;23.87;35.32;101040.78;3558820;81;98968;-83
2022/09/06 14:49:32;;;;;;;2.73;1.20;;;;;;;23.91;35.42;101043.66;3563767;81;98872;-83
2022/09/06 14:54:33;;;;;;;5.50;1.43;;;;;;;23.92;35.54;101039.60;3569625;81;98984;-83
2022/09/06 14:59:35;;;;;;;4.37;1.40;;;;;;;23.88;35.46;101031.93;3560179;81;98995;-83
2022/09/06 15:04:36;;;;;;;4.75;1.30;;;;;;;23.77;35.52;101024.41;3574134;81;98990;-83
2022/09/06 15:09:37;;;;;;;3.63;1.20;;;;;;;23.47;35.47;101027.03;3564783;81;98845;-83
2022/09/06 15:14:39;;;;;;;5.87;1.42;;;;;;;23.27;35.82;101018.84;3552756;80;99003;-83
2022/09/06 15:19:41;;;;;;;6.87;2.00;;;;;;;23.21;36.24;101013.61;3576227;81;98926;-83
2022/09/06 15:24:42;;;;;;;3.20;1.20;;;;;;;23.25;36.57;101026.14;3561696;81;98987;-83
2022/09/06 15:29:43;;;;;;;5.65;2.02;;;;;;;23.01;36.35;101022.85;3555555;81;99288;-82
2022/09/06 15:34:44;;;;;;;7.55;2.80;;;;;;;22.91;36.63;101007.72;3579244;81;98873;-83
2022/09/06 15:39:46;;;;;;;7.15;2.55;;;;;;;22.80;36.42;101010.05;3573473;80;98702;-84
2022/09/06 15:44:47;;;;;;;4.22;1.50;;;;;;;22.68;36.86;101005.97;3569840;81;98699;-83
2022/09/06 15:49:48;;;;;;;4.83;1.52;;;;;;;22.51;36.62;101007.91;3574081;81;98865;-83
2022/09/06 16:00:12;;;;;;;9.48;1.32;;;;;;;22.22;37.05;101000.86;3558112;82;98862;-84
2022/09/06 16:05:13;;;;;;;4.25;1.55;;;;;;;22.11;37.32;100993.96;3554643;81;98815;-83
2022/09/06 16:10:14;;;;;;;3.95;1.32;;;;;;;21.95;37.44;100986.98;3563795;81;98759;-82
2022/09/06 16:15:16;;;;;;;4.20;1.60;;;;;;;21.87;37.74;100981.41;3555888;81;98691;-83
2022/09/06 16:20:17;;;;;;;5.23;1.40;;;;;;;21.73;37.93;100991.56;3568271;81;99069;-82
2022/09/06 16:25:18;;;;;;;7.50;1.70;;;;;;;21.69;38.35;100983.89;3570346;81;98937;-82
2022/09/06 16:30:19;;;;;;;6.50;1.20;;;;;;;21.64;39.14;100982.98;3560670;81;98877;-83
2022/09/06 16:35:20;;;;;;;4.33;1.40;;;;;;;21.49;38.97;100984.55;3571744;81;98867;-78
2022/09/06 16:40:21;;;;;;;8.08;1.92;;;;;;;21.37;39.27;100981.05;3568517;81;98922;-82
2022/09/06 16:45:23;;;;;;;8.15;2.00;;;;;;;21.29;39.66;100976.83;3568377;81;98898;-83
2022/09/06 16:50:24;;;;;;;5.40;1.77;;;;;;;21.16;39.96;100978.16;3568409;81;98959;-82
2022/09/06 16:55:26;;;;;;;5.10;1.40;;;;;;;21.06;40.45;100979.78;3565908;82;98881;-83
2022/09/06 17:00:27;;;;;;;6.30;1.93;;;;;;;20.93;40.83;100969.09;3554795;81;98922;-83
2022/09/06 17:05:28;;;;;;;3.65;1.47;;;;;;;20.81;41.20;100971.14;3548422;81;98795;-83
2022/09/06 17:10:30;;;;;;;5.03;1.40;;;;;;;20.66;41.84;100967.84;3576044;81;98884;-84
2022/09/06 17:17:03;;;;;;;3.90;1.37;;;;;;;20.47;42.15;100961.67;3570080;81;98927;-83
2022/09/06 17:20:34;;;;;;;5.13;1.70;;;;;;;20.27;42.27;100957.30;3544997;81;100031;-84
2022/09/06 17:25:35;;;;;;;4.50;1.77;;;;;;;20.07;42.49;100960.09;3559616;82;99105;-84
2022/09/06 17:30:38;;;;;;;6.17;1.87;;;;;;;19.91;43.08;100958.56;3566525;81;98941;-84
2022/09/06 17:35:40;;;;;;;4.87;1.50;;;;;;;19.70;42.82;100964.53;3578814;80;98904;-83
2022/09/06 17:40:42;;;;;;;6.75;1.60;;;;;;;19.54;43.22;100960.22;3568012;80;99442;-84
2022/09/06 17:45:43;;;;;;;5.00;1.40;;;;;;;19.36;43.49;100960.33;3572260;80;98863;-84
2022/09/06 17:50:44;;;;;;;6.83;2.30;;;;;;;19.20;44.00;100972.72;3564305;80;98821;-84
2022/09/06 17:55:46;;;;;;;6.50;1.80;;;;;;;19.01;43.95;100976.20;3560328;81;98873;-83
2022/09/06 18:00:47;;;;;;;6.23;1.93;;;;;;;18.82;44.08;100971.28;3561425;80;98901;-85
2022/09/06 18:05:48;;;;;;;2.87;1.30;;;;;;;18.66;44.26;100965.52;3571991;80;98824;-85
2022/09/06 18:10:49;;;;;;;2.60;1.12;;;;;;;18.50;44.51;100975.89;3590586;80;99031;-85
2022/09/06 18:15:50;;;;;;;6.43;1.40;;;;;;;18.37;44.63;100978.25;3577582;80;98793;-84
2022/09/06 18:20:52;;;;;;;5.05;1.67;;;;;;;18.21;44.97;100984.97;3605627;80;98909;-85
2022/09/06 18:26:04;;;;;;;8.88;2.02;;;;;;;18.09;45.34;100979.31;3606646;80;98895;-84
2022/09/06 18:31:09;;;;;;;4.43;1.60;;;;;;;17.95;45.75;100980.88;3604202;80;99012;-85
2022/09/06 18:36:14;;;;;;;8.33;2.00;;;;;;;17.78;46.01;100987.41;3573344;80;98858;-86
2022/09/06 18:46:37;;;;;;;8.00;2.02;;;;;;;17.46;46.98;100992.45;3556385;80;98909;-85
2022/09/06 18:51:39;;;;;;;8.13;1.93;;;;;;;17.46;46.98;100992.45;3566206;81;98862;-86
2022/09/06 18:56:41;;;;;;;9.20;2.00;;;;;;;17.37;47.62;101001.83;3546342;81;98874;-84
2022/09/06 19:01:42;;;;;;;7.67;2.08;;;;;;;17.32;48.13;101005.04;3567458;81;98965;-85
2022/09/06 19:06:44;;;;;;;6.70;1.92;;;;;;;17.22;48.25;100998.17;3565078;81;99047;-86
2022/09/06 19:11:50;;;;;;;4.17;2.10;;;;;;;17.13;48.64;101001.41;3570577;80;99069;-84
2022/09/06 19:16:50;;;;;;;9.78;2.55;;;;;;;17.04;49.35;100996.89;3571264;81;98828;-85
2022/09/06 19:21:51;;;;;;;7.12;2.40;;;;;;;16.98;49.24;100994.34;3577306;80;98912;-85
2022/09/06 19:26:54;;;;;;;5.80;2.75;;;;;;;16.92;49.42;101004.31;3573268;80;98818;-86
2022/09/06 19:31:56;;;;;;;8.78;2.92;;;;;;;16.84;49.75;100999.20;3572680;80;98953;-86
2022/09/06 19:37:00;;;;;;;9.57;2.23;;;;;;;16.78;49.95;100991.09;3582958;80;98883;-85
2022/09/06 19:42:01;;;;;;;6.87;2.37;;;;;;;16.75;50.08;100984.35;3572809;80;99211;-85
2022/09/06 19:47:02;;;;;;;6.63;2.30;;;;;;;16.74;50.42;100982.74;3575850;80;99056;-86
2022/09/06 19:52:08;;;;;;;11.10;2.03;;;;;;;16.72;50.39;100976.00;3564464;80;98858;-86
2022/09/06 19:57:07;;;;;;;4.72;1.70;;;;;;;16.70;50.69;100963.92;3568515;80;99338;-87
2022/09/06 20:02:08;;;;;;;5.67;1.70;;;;;;;16.65;50.67;100968.52;3580754;80;99043;-88
2022/09/06 20:07:09;;;;;;;5.65;2.05;;;;;;;16.58;50.87;100969.92;3570154;80;98861;-88
2022/09/06 20:12:11;;;;;;;4.47;1.90;;;;;;;16.52;51.15;100954.86;3572819;80;99029;-88
2022/09/06 20:17:12;;;;;;;7.50;2.10;;;;;;;16.46;51.28;100954.32;3564250;81;98911;-89
2022/09/06 20:22:13;;;;;;;3.90;1.80;;;;;;;16.35;51.45;100955.70;3558397;81;99042;-89
2022/09/06 20:27:14;;;;;;;5.78;2.05;;;;;;;16.28;51.45;100956.33;3552402;81;98921;-89
2022/09/06 20:32:16;;;;;;;5.87;1.90;;;;;;;16.19;51.59;100959.53;3562705;81;98873;-89
2022/09/06 20:37:17;;;;;;;6.33;2.07;;;;;;;16.11;51.84;100959.95;3571890;81;98982;-89
2022/09/06 20:42:18;;;;;;;6.83;2.10;;;;;;;16.06;52.23;100966.72;3573987;80;98823;-89
2022/09/06 20:47:20;;;;;;;5.97;2.00;;;;;;;15.99;52.13;100963.97;3578386;80;98838;-89
2022/09/06 20:52:21;;;;;;;6.27;2.00;;;;;;;15.89;52.40;100963.98;3557082;81;98934;-81
2022/09/06 20:57:22;;;;;;;8.00;2.10;;;;;;;15.74;52.87;100951.31;3582658;80;104966;-88
2022/09/06 21:02:23;;;;;;;6.50;2.60;;;;;;;15.67;52.74;100949.36;3582468;80;99107;-88
2022/09/06 21:07:24;;;;;;;6.40;1.60;;;;;;;15.55;53.87;100944.81;3570252;80;98884;-87
2022/09/06 21:12:25;;;;;;;6.80;2.77;;;;;;;15.47;53.23;100945.41;3553989;80;98963;-89
2022/09/06 21:17:27;;;;;;;7.83;1.80;;;;;;;15.40;53.53;100958.48;3561083;80;98939;-88
2022/09/06 21:22:28;;;;;;;5.22;2.10;;;;;;;15.36;53.66;100961.26;3559468;80;99135;-86
2022/09/06 21:27:30;;;;;;;5.97;2.10;;;;;;;15.31;53.98;100956.69;3563816;80;99194;-89
2022/09/06 21:32:32;;;;;;;6.93;2.50;;;;;;;15.25;54.05;100949.92;3543451;81;101435;-89
2022/09/06 21:37:33;;;;;;;8.80;1.90;;;;;;;15.19;54.43;100950.92;3534550;81;99365;-89
2022/09/06 21:42:34;;;;;;;6.20;2.00;;;;;;;15.13;54.70;100946.96;3538553;81;99031;-89
2022/09/06 21:47:37;;;;;;;7.33;2.13;;;;;;;15.07;54.68;100944.97;3549431;80;98850;-89
2022/09/06 21:52:38;;;;;;;7.73;2.40;;;;;;;14.97;54.94;100942.97;3549272;81;98808;-89
2022/09/06 21:57:39;;;;;;;7.28;2.47;;;;;;;14.90;55.29;100949.89;3537374;81;99065;-89
2022/09/06 22:02:41;;;;;;;8.35;2.20;;;;;;;14.79;55.40;100938.80;3550195;81;98923;-88
2022/09/06 22:07:42;;;;;;;10.28;2.70;;;;;;;14.75;55.84;100940.77;3526205;81;99008;-88
2022/09/06 22:12:43;;;;;;;9.73;3.47;;;;;;;14.65;56.00;100945.68;3538000;81;99140;-88
2022/09/06 22:17:45;;;;;;;8.75;2.62;;;;;;;14.64;56.26;100941.91;3519140;82;98941;-89
2022/09/06 22:22:47;;;;;;;6.70;2.45;;;;;;;14.59;56.43;100933.98;3514429;82;98850;-90
2022/09/06 22:27:48;;;;;;;8.50;2.70;;;;;;;14.57;56.51;100921.92;3519776;82;98858;-88
2022/09/06 22:32:49;;;;;;;6.50;2.45;;;;;;;14.52;56.80;100924.27;3521078;82;99083;-89
2022/09/06 22:37:51;;;;;;;8.00;2.70;;;;;;;14.43;57.02;100925.22;3534413;82;98771;-89
2022/09/06 22:42:52;;;;;;;6.53;2.67;;;;;;;14.38;57.13;100919.48;3506259;81;98857;-88
2022/09/06 22:47:53;;;;;;;7.10;2.80;;;;;;;14.28;57.32;100915.30;3538310;82;98678;-89
2022/09/06 22:52:55;;;;;;;6.50;2.40;;;;;;;14.18;57.68;100921.55;3515152;82;98955;-89
2022/09/06 22:57:56;;;;;;;6.58;2.52;;;;;;;14.18;58.33;100918.78;3516541;82;98912;-90
2022/09/06 23:02:57;;;;;;;7.55;2.42;;;;;;;14.16;58.03;100904.52;3524385;81;98907;-89
2022/09/06 23:08:00;;;;;;;6.50;2.55;;;;;;;14.11;58.19;100904.31;3521347;82;99016;-89
2022/09/06 23:13:01;;;;;;;6.95;2.52;;;;;;;14.00;58.44;100899.92;3529473;82;98912;-89
2022/09/06 23:18:03;;;;;;;7.85;2.83;;;;;;;13.94;58.72;100904.22;3538622;82;99260;-88
2022/09/06 23:23:07;;;;;;;7.70;2.80;;;;;;;13.91;58.68;100897.48;3525093;82;98750;-89
2022/09/06 23:28:08;;;;;;;6.47;3.07;;;;;;;13.85;58.98;100899.65;3523455;82;98877;-89
2022/09/06 23:33:09;;;;;;;8.43;3.20;;;;;;;13.82;59.10;100892.11;3523763;82;98758;-89
2022/09/06 23:38:10;;;;;;;7.23;2.53;;;;;;;13.76;59.46;100882.02;3535960;82;98747;-89
2022/09/06 23:43:11;;;;;;;8.07;2.87;;;;;;;13.73;59.31;100882.00;3534472;82;98728;-90
2022/09/06 23:48:13;;;;;;;7.03;2.87;;;;;;;13.70;59.63;100886.91;3526230;81;98820;-87